createdAt,value
2019-03-13T00:01:15.179Z,0.75
2019-03-13T00:03:42.465Z,1.37
2019-03-13T00:06:09.488Z,2.60
2019-03-13T00:08:38.968Z,0.90
2019-03-13T00:11:07.054Z,0.45
2019-03-13T00:13:34.142Z,1.15
2019-03-13T00:16:01.255Z,0.57
2019-03-13T00:18:28.506Z,0.60
2019-03-13T00:20:55.505Z,0.53
2019-03-13T00:23:22.624Z,0.42
2019-03-13T00:25:49.641Z,1.85
2019-03-13T00:28:16.697Z,2.95
2019-03-13T00:30:43.798Z,1.00
2019-03-13T00:33:13.261Z,0.88
2019-03-13T00:35:41.433Z,2.85
2019-03-13T00:38:21.424Z,0.75
2019-03-13T00:40:49.429Z,1.40
2019-03-13T00:43:16.747Z,0.20
2019-03-13T00:45:43.883Z,0.53
2019-03-13T00:48:10.939Z,3.98
2019-03-13T00:50:38.036Z,0.30
2019-03-13T00:53:05.093Z,1.00
2019-03-13T00:55:32.194Z,0.65
2019-03-13T00:57:59.216Z,0.37
2019-03-13T01:00:46.145Z,0.80
2019-03-13T01:03:33.019Z,0.45
2019-03-13T01:06:01.993Z,0.28
2019-03-13T01:08:29.083Z,0.28
2019-03-13T01:10:59.525Z,1.27
2019-03-13T01:13:26.578Z,0.30
2019-03-13T01:15:53.618Z,0.25
2019-03-13T01:18:20.719Z,0.47
2019-03-13T01:20:47.733Z,0.30
2019-03-13T01:23:14.887Z,0.68
2019-03-13T01:25:41.910Z,1.22
2019-03-13T01:28:08.978Z,0.20
2019-03-13T01:30:37.858Z,1.22
2019-03-13T01:33:12.709Z,0.68
2019-03-13T01:35:41.554Z,0.20
2019-03-13T01:38:08.658Z,0.98
2019-03-13T01:40:35.664Z,2.72
2019-03-13T01:43:02.734Z,0.20
2019-03-13T01:45:29.711Z,1.30
2019-03-13T01:47:56.745Z,0.78
2019-03-13T01:50:23.730Z,1.07
2019-03-13T01:52:50.843Z,2.35
2019-03-13T01:55:17.857Z,3.60
2019-03-13T01:57:44.933Z,2.85
2019-03-13T02:00:13.393Z,3.40
2019-03-13T02:02:41.214Z,2.62
2019-03-13T02:05:08.262Z,3.22
2019-03-13T02:07:35.558Z,3.87
2019-03-13T02:10:06.509Z,2.15
2019-03-13T02:12:34.455Z,2.70
2019-03-13T02:15:01.690Z,2.37
2019-03-13T02:17:29.954Z,2.33
2019-03-13T02:19:56.989Z,3.83
2019-03-13T02:22:24.104Z,2.95
2019-03-13T02:24:54.026Z,2.85
2019-03-13T02:27:20.003Z,2.25
2019-03-13T02:29:47.023Z,2.50
2019-03-13T02:32:14.098Z,4.40
2019-03-13T02:34:41.232Z,6.50
2019-03-13T02:37:08.273Z,4.47
2019-03-13T02:39:35.443Z,5.08
2019-03-13T02:42:02.702Z,4.25
2019-03-13T02:44:32.342Z,3.92
2019-03-13T02:46:59.441Z,7.95
2019-03-13T02:49:27.246Z,4.25
2019-03-13T02:51:54.302Z,4.00
2019-03-13T02:54:21.273Z,4.87
2019-03-13T02:56:48.397Z,3.15
2019-03-13T02:59:15.441Z,5.53
2019-03-13T03:01:44.237Z,4.62
2019-03-13T03:04:11.310Z,4.28
2019-03-13T03:06:38.371Z,6.55
2019-03-13T03:09:06.809Z,6.10
2019-03-13T03:11:35.704Z,1.98
2019-03-13T03:14:02.740Z,5.47
2019-03-13T03:16:29.854Z,5.45
2019-03-13T03:18:56.944Z,9.08
2019-03-13T03:21:23.990Z,7.55
2019-03-13T03:23:51.000Z,10.70
2019-03-13T03:26:18.076Z,7.10
2019-03-13T03:28:45.135Z,5.65
2019-03-13T03:31:12.181Z,8.18
2019-03-13T03:33:39.301Z,6.45
2019-03-13T03:36:06.335Z,7.47
2019-03-13T03:38:34.142Z,4.47
2019-03-13T03:41:01.245Z,2.80
2019-03-13T03:43:40.411Z,4.10
2019-03-13T03:46:00.157Z,5.15
2019-03-13T03:48:27.354Z,4.15
2019-03-13T03:50:54.861Z,3.40
2019-03-13T03:53:21.982Z,2.75
2019-03-13T03:55:48.978Z,4.75
2019-03-13T03:58:16.104Z,2.15
2019-03-13T04:00:43.089Z,4.17
2019-03-13T04:03:10.223Z,6.62
2019-03-13T04:05:38.485Z,2.98
2019-03-13T04:08:05.623Z,4.30
2019-03-13T04:10:32.619Z,4.58
2019-03-13T04:12:59.767Z,4.85
2019-03-13T04:15:26.767Z,2.05
2019-03-13T04:17:53.898Z,5.00
2019-03-13T04:20:20.863Z,7.85
2019-03-13T04:22:47.992Z,4.70
2019-03-13T04:25:24.628Z,7.05
2019-03-13T04:27:51.783Z,5.17
2019-03-13T04:30:18.752Z,1.60
2019-03-13T04:32:45.779Z,3.83
2019-03-13T04:35:12.781Z,2.95
2019-03-13T04:37:39.969Z,3.72
2019-03-13T04:40:10.685Z,1.65
2019-03-13T04:42:37.734Z,3.22
2019-03-13T04:45:06.383Z,0.80
2019-03-13T04:47:33.621Z,1.30
2019-03-13T04:50:14.345Z,2.77
2019-03-13T04:52:42.459Z,3.52
2019-03-13T04:55:10.773Z,1.67
2019-03-13T04:57:37.798Z,1.45
2019-03-13T05:00:08.478Z,2.47
2019-03-13T05:02:36.515Z,2.02
2019-03-13T05:05:03.760Z,2.10
2019-03-13T05:07:30.861Z,5.12
2019-03-13T05:09:58.905Z,4.08
2019-03-13T05:12:26.077Z,5.47
2019-03-13T05:14:53.051Z,4.25
2019-03-13T05:17:20.065Z,4.12
2019-03-13T05:19:47.506Z,0.23
2019-03-13T05:22:14.562Z,3.47
2019-03-13T05:24:43.890Z,2.95
2019-03-13T05:27:12.042Z,3.45
2019-03-13T05:29:39.798Z,2.33
2019-03-13T05:32:06.974Z,4.72
2019-03-13T05:34:34.005Z,3.33
2019-03-13T05:37:01.138Z,2.90
2019-03-13T05:39:28.249Z,3.65
2019-03-13T05:41:55.298Z,2.40
2019-03-13T05:44:22.349Z,2.35
2019-03-13T05:46:49.614Z,2.95
2019-03-13T05:49:16.743Z,3.22
2019-03-13T05:51:43.795Z,1.50
2019-03-13T05:54:13.604Z,3.98
2019-03-13T05:56:43.109Z,2.25
2019-03-13T05:59:10.156Z,2.67
2019-03-13T06:01:37.158Z,6.45
2019-03-13T06:04:04.270Z,3.98
2019-03-13T06:06:31.329Z,5.40
2019-03-13T06:08:59.488Z,2.95
2019-03-13T06:11:27.075Z,3.47
2019-03-13T06:13:54.126Z,3.72
2019-03-13T06:16:31.942Z,6.70
2019-03-13T06:18:59.104Z,3.10
2019-03-13T06:21:26.205Z,4.17
2019-03-13T06:23:53.224Z,5.53
2019-03-13T06:26:20.268Z,4.53
2019-03-13T06:28:47.356Z,5.42
2019-03-13T06:31:14.363Z,6.78
2019-03-13T06:33:41.466Z,5.45
2019-03-13T06:36:08.415Z,6.75
2019-03-13T06:38:35.682Z,3.62
2019-03-13T06:41:05.241Z,8.43
2019-03-13T06:43:31.729Z,14.10
2019-03-13T06:46:01.087Z,7.15
2019-03-13T06:48:28.190Z,8.65
2019-03-13T06:50:55.232Z,9.00
2019-03-13T06:53:22.292Z,8.08
2019-03-13T06:55:49.354Z,6.67
2019-03-13T06:58:18.230Z,8.78
2019-03-13T07:00:56.080Z,8.25
2019-03-13T07:03:31.017Z,13.53
2019-03-13T07:06:02.660Z,5.15
2019-03-13T07:08:49.670Z,8.80
2019-03-13T07:11:18.557Z,7.00
2019-03-13T07:13:53.185Z,11.88
2019-03-13T07:19:22.689Z,10.98
2019-03-13T07:22:01.137Z,10.70
2019-03-13T07:24:42.621Z,16.70
2019-03-13T07:27:23.857Z,11.93
2019-03-13T07:29:58.858Z,11.08
2019-03-13T07:32:44.314Z,12.37
2019-03-13T07:35:13.805Z,15.43
2019-03-13T07:37:42.629Z,15.30
2019-03-13T07:40:21.789Z,17.35
2019-03-13T07:42:56.700Z,9.35
2019-03-13T07:45:25.715Z,14.47
2019-03-13T07:48:11.088Z,17.25
2019-03-13T07:50:40.001Z,15.83
2019-03-13T07:53:25.686Z,11.85
2019-03-13T07:56:06.567Z,8.20
2019-03-13T07:58:38.149Z,11.05
2019-03-13T08:01:16.030Z,12.93
2019-03-13T08:03:50.957Z,10.75
2019-03-13T08:06:32.930Z,8.28
2019-03-13T08:09:01.811Z,6.30
2019-03-13T08:11:47.833Z,9.05
2019-03-13T08:14:17.602Z,11.18
2019-03-13T08:16:46.487Z,11.40
2019-03-13T08:19:25.338Z,9.75
2019-03-13T08:22:00.446Z,10.65
2019-03-13T08:24:44.469Z,11.65
2019-03-13T08:27:25.326Z,7.10
2019-03-13T08:30:10.860Z,5.20
2019-03-13T08:32:51.873Z,6.75
2019-03-13T08:35:23.545Z,7.62
2019-03-13T08:37:55.537Z,6.20
2019-03-13T08:40:32.449Z,10.30
2019-03-13T08:43:07.514Z,8.20
2019-03-13T08:45:36.351Z,6.10
2019-03-13T08:48:15.118Z,14.65
2019-03-13T08:50:56.228Z,9.85
2019-03-13T08:53:26.193Z,9.05
2019-03-13T08:56:00.894Z,11.73
2019-03-13T09:01:24.528Z,9.23
2019-03-13T09:03:56.478Z,9.95
2019-03-13T09:06:31.382Z,8.78
2019-03-13T09:09:00.230Z,9.45
2019-03-13T09:11:45.948Z,8.80
2019-03-13T09:14:17.588Z,17.57
2019-03-13T09:16:52.588Z,12.75
2019-03-13T09:19:21.470Z,11.03
2019-03-13T09:22:07.018Z,15.08
2019-03-13T09:24:35.830Z,11.57
2019-03-13T09:27:07.871Z,9.88
2019-03-13T09:29:37.982Z,11.25
2019-03-13T09:32:23.548Z,14.33
2019-03-13T09:34:52.354Z,10.58
2019-03-13T09:37:33.531Z,13.80
2019-03-13T09:40:02.666Z,11.83
2019-03-13T09:42:37.690Z,14.40
2019-03-13T09:45:09.873Z,10.60
2019-03-13T09:47:38.871Z,18.75
2019-03-13T09:50:11.785Z,20.08
2019-03-13T09:52:40.788Z,15.18
2019-03-13T09:55:12.328Z,19.95
2019-03-13T09:57:50.231Z,18.25
2019-03-13T10:00:31.406Z,13.28
2019-03-13T10:03:00.420Z,12.68
2019-03-13T10:05:35.386Z,16.00
2019-03-13T10:08:11.420Z,9.80
2019-03-13T10:10:40.544Z,14.50
2019-03-13T10:13:18.709Z,14.78
2019-03-13T10:15:50.427Z,15.63
2019-03-13T10:18:19.364Z,11.48
2019-03-13T10:20:50.714Z,19.42
2019-03-13T10:23:36.531Z,19.52
2019-03-13T10:26:21.319Z,14.25
2019-03-13T10:28:56.120Z,12.70
2019-03-13T10:31:41.750Z,18.40
2019-03-13T10:34:22.681Z,14.23
2019-03-13T10:37:03.058Z,19.52
2019-03-13T10:39:47.181Z,16.48
2019-03-13T10:42:18.679Z,18.37
2019-03-13T10:44:50.600Z,18.48
2019-03-13T10:47:34.930Z,15.35
2019-03-13T10:50:12.269Z,13.43
2019-03-13T10:52:50.218Z,13.28
2019-03-13T10:55:35.783Z,12.63
2019-03-13T10:58:05.544Z,13.98
2019-03-13T11:00:37.316Z,14.73
2019-03-13T11:03:06.281Z,11.88
2019-03-13T11:05:53.473Z,15.15
2019-03-13T11:08:34.697Z,18.73
2019-03-13T11:11:06.667Z,12.45
2019-03-13T11:13:35.659Z,11.38
2019-03-13T11:16:07.773Z,13.10
2019-03-13T11:18:42.467Z,14.18
2019-03-13T11:21:12.701Z,11.57
2019-03-13T11:23:50.907Z,13.60
2019-03-13T11:26:19.947Z,13.28
2019-03-13T11:28:59.085Z,13.98
2019-03-13T11:31:34.159Z,12.70
2019-03-13T11:34:20.186Z,16.67
2019-03-13T11:36:51.791Z,14.87
2019-03-13T11:39:37.518Z,11.25
2019-03-13T11:42:12.338Z,15.60
2019-03-13T11:44:47.463Z,14.65
2019-03-13T11:47:41.864Z,14.40
2019-03-13T11:50:06.101Z,13.58
2019-03-13T11:52:34.893Z,12.18
2019-03-13T11:55:09.597Z,14.63
2019-03-13T12:00:35.126Z,12.58
2019-03-13T12:03:03.915Z,14.15
2019-03-13T12:05:50.942Z,10.98
2019-03-13T12:08:26.277Z,7.85
2019-03-13T12:11:07.317Z,9.75
2019-03-13T12:13:36.969Z,11.18
2019-03-13T12:16:14.759Z,12.60
2019-03-13T12:18:46.125Z,14.58
2019-03-13T12:21:27.061Z,8.38
2019-03-13T12:23:55.870Z,11.03
2019-03-13T12:26:36.733Z,8.53
2019-03-13T12:29:17.117Z,5.30
2019-03-13T12:31:46.013Z,7.92
2019-03-13T12:34:31.555Z,6.65
2019-03-13T12:37:12.629Z,8.43
2019-03-13T12:39:42.420Z,9.43
2019-03-13T12:42:17.157Z,8.03
2019-03-13T12:44:48.497Z,8.45
2019-03-13T12:47:23.619Z,7.42
2019-03-13T12:49:52.407Z,9.78
2019-03-13T12:52:21.310Z,9.55
2019-03-13T12:54:52.967Z,9.23
2019-03-13T12:57:24.671Z,12.68
2019-03-13T13:00:05.596Z,8.10
2019-03-13T13:02:34.566Z,7.30
2019-03-13T13:05:20.074Z,8.03
2019-03-13T13:08:01.269Z,9.60
2019-03-13T13:10:41.672Z,6.45
2019-03-13T13:13:19.539Z,8.93
2019-03-13T13:16:00.469Z,7.97
2019-03-13T13:18:41.348Z,7.03
2019-03-13T13:21:08.343Z,12.37
2019-03-13T13:23:35.588Z,7.33
2019-03-13T13:26:02.579Z,6.40
2019-03-13T13:28:29.753Z,6.92
2019-03-13T13:30:56.733Z,4.72
2019-03-13T13:33:23.850Z,6.28
2019-03-13T13:35:50.832Z,8.30
2019-03-13T13:38:17.912Z,4.78
2019-03-13T13:40:44.967Z,6.33
2019-03-13T13:43:12.165Z,10.68
2019-03-13T13:45:41.985Z,6.20
2019-03-13T13:48:09.133Z,10.35
2019-03-13T13:50:36.359Z,7.25
2019-03-13T13:53:03.497Z,8.38
2019-03-13T13:55:30.747Z,5.55
2019-03-13T13:57:58.003Z,3.17
2019-03-13T14:00:25.254Z,2.67
2019-03-13T14:02:53.152Z,5.97
2019-03-13T14:05:20.698Z,5.15
2019-03-13T14:07:47.754Z,5.10
2019-03-13T14:10:14.790Z,2.60
2019-03-13T14:12:41.797Z,2.80
2019-03-13T14:15:13.103Z,5.37
2019-03-13T14:17:40.122Z,4.00
2019-03-13T14:20:09.585Z,4.17
2019-03-13T14:22:36.669Z,4.17
2019-03-13T14:25:10.230Z,6.60
2019-03-13T14:27:37.307Z,2.75
2019-03-13T14:30:13.263Z,5.08
2019-03-13T14:32:40.325Z,1.98
2019-03-13T14:35:07.482Z,4.58
2019-03-13T14:37:34.539Z,2.62
2019-03-13T14:40:02.929Z,2.62
2019-03-13T14:42:29.964Z,2.90
2019-03-13T14:44:57.058Z,2.98
2019-03-13T14:47:24.094Z,2.87
2019-03-13T14:49:52.235Z,1.22
2019-03-13T14:52:19.409Z,2.00
2019-03-13T14:54:46.546Z,2.15
2019-03-13T14:57:13.674Z,3.37
2019-03-13T14:59:40.945Z,3.98
2019-03-13T15:02:08.155Z,2.02
2019-03-13T15:04:35.345Z,2.37
2019-03-13T15:07:02.541Z,3.70
2019-03-13T15:09:29.648Z,6.67
2019-03-13T15:11:56.754Z,4.60
2019-03-13T15:14:23.816Z,5.47
2019-03-13T15:16:53.341Z,6.05
2019-03-13T15:19:20.018Z,5.03
2019-03-13T15:21:47.046Z,3.12
2019-03-13T15:24:14.187Z,1.95
2019-03-13T15:26:41.169Z,3.30
2019-03-13T15:29:08.265Z,5.00
2019-03-13T15:31:35.377Z,2.30
2019-03-13T15:34:02.431Z,1.95
2019-03-13T15:36:29.416Z,1.92
2019-03-13T15:38:56.577Z,1.67
2019-03-13T15:41:23.789Z,2.67
2019-03-13T15:43:51.144Z,1.75
2019-03-13T15:46:18.183Z,2.15
2019-03-13T15:48:45.351Z,3.27
2019-03-13T15:51:12.596Z,4.47
2019-03-13T15:53:39.601Z,2.75
2019-03-13T15:56:06.739Z,2.87
2019-03-13T15:58:33.709Z,0.72
2019-03-13T16:01:00.849Z,4.45
2019-03-13T16:03:30.227Z,1.67
2019-03-13T16:05:57.445Z,3.92
2019-03-13T16:08:24.454Z,3.33
2019-03-13T16:10:51.594Z,9.03
2019-03-13T16:13:18.577Z,3.27
2019-03-13T16:15:46.268Z,1.85
2019-03-13T16:18:13.522Z,6.25
2019-03-13T16:20:40.717Z,8.28
2019-03-13T16:23:07.707Z,3.33
2019-03-13T16:25:34.842Z,3.33
2019-03-13T16:28:01.841Z,3.20
2019-03-13T16:30:39.790Z,2.33
2019-03-13T16:33:06.968Z,4.10
2019-03-13T16:35:34.066Z,3.80
2019-03-13T16:38:01.230Z,5.12
2019-03-13T16:40:31.717Z,4.30
2019-03-13T16:42:58.360Z,4.03
2019-03-13T16:45:25.660Z,4.83
2019-03-13T16:47:53.036Z,5.12
2019-03-13T16:50:23.187Z,4.10
2019-03-13T16:52:50.330Z,3.40
2019-03-13T16:55:19.542Z,3.08
2019-03-13T16:57:47.714Z,7.95
2019-03-13T17:00:18.518Z,8.05
2019-03-13T17:02:45.765Z,7.17
2019-03-13T17:05:14.830Z,7.30
2019-03-13T17:07:42.102Z,8.58
2019-03-13T17:10:11.755Z,6.92
2019-03-13T17:12:38.935Z,6.00
2019-03-13T17:15:11.830Z,11.97
2019-03-13T17:17:39.032Z,4.72
2019-03-13T17:20:26.111Z,6.10
2019-03-13T17:22:53.114Z,2.98
2019-03-13T17:25:20.578Z,6.45
2019-03-13T17:27:48.497Z,5.45
2019-03-13T17:30:18.128Z,7.33
2019-03-13T17:32:45.139Z,9.03
2019-03-13T17:35:14.140Z,5.47
2019-03-13T17:37:42.926Z,8.43
2019-03-13T17:40:17.797Z,11.30
2019-03-13T17:42:44.785Z,5.83
2019-03-13T17:45:14.305Z,7.97
2019-03-13T17:47:41.393Z,5.05
2019-03-13T17:50:22.495Z,6.65
2019-03-13T17:52:49.679Z,7.95
2019-03-13T17:55:19.403Z,9.05
2019-03-13T17:57:46.494Z,7.35
2019-03-13T18:00:27.214Z,6.17
2019-03-13T18:02:54.268Z,7.25
2019-03-13T18:05:21.369Z,8.95
2019-03-13T18:07:48.415Z,8.13
2019-03-13T18:10:17.885Z,6.95
2019-03-13T18:12:45.022Z,7.33
2019-03-13T18:15:12.502Z,9.93
2019-03-13T18:17:39.813Z,7.25
2019-03-13T18:20:18.644Z,9.05
2019-03-13T18:22:46.290Z,7.67
2019-03-13T18:25:14.366Z,3.87
2019-03-13T18:27:41.579Z,6.60
2019-03-13T18:30:15.239Z,10.95
2019-03-13T18:32:43.285Z,7.87
2019-03-13T18:35:11.727Z,6.70
2019-03-13T18:37:39.728Z,9.93
2019-03-13T18:40:12.448Z,4.92
2019-03-13T18:42:41.749Z,4.10
2019-03-13T18:45:12.221Z,1.72
2019-03-13T18:47:39.528Z,5.85
2019-03-13T18:50:10.001Z,9.40
2019-03-13T18:52:37.182Z,8.73
2019-03-13T18:55:09.626Z,8.83
2019-03-13T18:57:37.228Z,9.03
2019-03-13T19:00:07.946Z,9.85
2019-03-13T19:02:35.206Z,5.75
2019-03-13T19:05:03.327Z,6.75
2019-03-13T19:07:30.354Z,6.92
2019-03-13T19:09:57.369Z,5.70
2019-03-13T19:12:24.547Z,7.45
2019-03-13T19:14:51.699Z,6.92
2019-03-13T19:17:18.934Z,6.97
2019-03-13T19:19:46.053Z,8.28
2019-03-13T19:22:13.269Z,2.80
2019-03-13T19:24:40.393Z,2.42
2019-03-13T19:27:07.574Z,5.35
2019-03-13T19:29:35.026Z,8.95
2019-03-13T19:32:02.300Z,5.70
2019-03-13T19:34:29.427Z,5.95
2019-03-13T19:36:56.553Z,8.65
2019-03-13T19:39:23.694Z,4.83
2019-03-13T19:41:50.774Z,4.17
2019-03-13T19:44:17.808Z,7.90
2019-03-13T19:46:44.893Z,2.45
2019-03-13T19:49:14.808Z,7.22
2019-03-13T19:51:41.808Z,6.03
2019-03-13T19:54:08.922Z,5.90
2019-03-13T19:56:35.963Z,3.40
2019-03-13T19:59:03.243Z,5.08
2019-03-13T20:01:30.288Z,6.12
2019-03-13T20:03:57.390Z,9.63
2019-03-13T20:06:24.448Z,5.60
2019-03-13T20:08:52.538Z,7.85
2019-03-13T20:11:19.726Z,7.22
2019-03-13T20:13:46.921Z,6.92
2019-03-13T20:16:15.893Z,8.98
2019-03-13T20:18:42.969Z,3.90
2019-03-13T20:21:10.015Z,10.20
2019-03-13T20:23:37.470Z,6.35
2019-03-13T20:26:05.333Z,5.83
2019-03-13T20:28:32.396Z,4.28
2019-03-13T20:31:00.409Z,10.48
2019-03-13T20:33:27.468Z,5.72
2019-03-13T20:35:54.553Z,5.25
2019-03-13T20:38:21.605Z,3.08
2019-03-13T20:40:49.579Z,2.45
2019-03-13T20:43:16.561Z,8.18
2019-03-13T20:45:45.398Z,5.00
2019-03-13T20:48:12.426Z,6.15
2019-03-13T20:50:39.685Z,4.87
2019-03-13T20:53:06.789Z,2.95
2019-03-13T20:55:33.864Z,3.75
2019-03-13T20:58:03.242Z,6.75
2019-03-13T21:00:30.263Z,6.92
2019-03-13T21:02:57.446Z,11.10
2019-03-13T21:05:24.865Z,9.30
2019-03-13T21:07:53.062Z,3.58
2019-03-13T21:10:22.412Z,7.78
2019-03-13T21:12:49.555Z,5.42
2019-03-13T21:15:19.459Z,4.50
2019-03-13T21:17:46.480Z,3.58
2019-03-13T21:20:15.098Z,7.90
2019-03-13T21:22:42.621Z,2.70
2019-03-13T21:25:11.762Z,6.17
2019-03-13T21:27:39.271Z,2.95
2019-03-13T21:30:15.077Z,3.62
2019-03-13T21:32:41.852Z,7.35
2019-03-13T21:35:08.870Z,3.52
2019-03-13T21:37:36.033Z,3.40
2019-03-13T21:40:05.253Z,2.75
2019-03-13T21:42:32.446Z,5.67
2019-03-13T21:44:59.570Z,5.75
2019-03-13T21:47:26.715Z,3.83
2019-03-13T21:49:54.326Z,4.33
2019-03-13T21:52:21.943Z,5.53
2019-03-13T21:54:51.987Z,4.42
2019-03-13T21:57:18.160Z,2.75
2019-03-13T21:59:45.639Z,9.15
2019-03-13T22:02:18.127Z,5.47
2019-03-13T22:04:46.321Z,5.30
2019-03-13T22:07:13.373Z,3.25
2019-03-13T22:09:42.141Z,5.60
2019-03-13T22:12:09.128Z,5.12
2019-03-13T22:14:38.389Z,6.10
2019-03-13T22:17:05.066Z,6.62
2019-03-13T22:19:32.129Z,7.12
2019-03-13T22:21:59.433Z,2.80
2019-03-13T22:24:26.470Z,3.42
2019-03-13T22:26:53.445Z,6.42
2019-03-13T22:29:20.486Z,2.33
2019-03-13T22:31:47.573Z,4.10
2019-03-13T22:34:15.678Z,7.42
2019-03-13T22:36:42.874Z,6.95
2019-03-13T22:39:09.908Z,5.62
2019-03-13T22:41:37.009Z,5.53
2019-03-13T22:44:04.078Z,5.22
2019-03-13T22:46:31.209Z,7.78
2019-03-13T22:48:58.664Z,9.08
2019-03-13T22:51:25.986Z,4.83
2019-03-13T22:53:53.137Z,8.80
2019-03-13T22:56:20.213Z,5.95
2019-03-13T22:58:47.284Z,4.58
2019-03-13T23:01:15.283Z,4.05
2019-03-13T23:03:44.864Z,5.15
2019-03-13T23:06:12.068Z,4.35
2019-03-13T23:08:39.166Z,1.75
2019-03-13T23:11:07.109Z,3.80
2019-03-13T23:13:34.397Z,1.87
2019-03-13T23:16:03.661Z,2.33
2019-03-13T23:18:30.829Z,2.20
2019-03-13T23:21:00.344Z,2.35
2019-03-13T23:23:27.566Z,2.60
2019-03-13T23:25:54.745Z,1.45
2019-03-13T23:28:22.689Z,1.98
2019-03-13T23:30:49.799Z,1.72
2019-03-13T23:33:16.944Z,0.70
2019-03-13T23:35:44.191Z,1.07
2019-03-13T23:38:11.489Z,0.72
2019-03-13T23:40:38.650Z,0.85
2019-03-13T23:43:05.783Z,0.75
2019-03-13T23:45:32.947Z,1.22
2019-03-13T23:47:59.905Z,1.05
2019-03-13T23:50:26.965Z,2.05
2019-03-13T23:52:54.021Z,0.33
2019-03-13T23:55:22.212Z,1.70
2019-03-13T23:57:49.389Z,0.98
